Погода Матиас Олимпиона неделю

Пиауи, Бразилия

18 - 24 июля
  • 18июля
    Сегодня
    +23°
    +33°
    Практически безоблачно
    ВремяПогодаТемператураВлажностьДавлениеВетер, м/сВероятность осадков
    00:00Практически безоблачно+25°C81 %758 мм1.7 м/с5 %
    03:00Ясно и безоблачно+22°C91 %757 мм1.5 м/с5 %
    06:00Ясно и безоблачно+21°C96 %758 мм1.1 м/с5 %
    09:00Ясно и безоблачно+28°C70 %759 мм1.7 м/с2 %
    12:00Облачно с прояснениями+31°C46 %758 мм3.6 м/с8 %
    15:00Практически безоблачно+32°C41 %756 мм3.1 м/с5 %
    18:00Ясно и безоблачно+30°C60 %757 мм1.1 м/с5 %
    21:00Ясно и безоблачно+26°C71 %758 мм2.2 м/с5 %
  • 19июля
    Пятница
    +23°
    +34°
    Ясно и безоблачно
    ВремяПогодаТемператураВлажностьДавлениеВетер, м/сВероятность осадков
    00:00Ясно и безоблачно+25°C84 %758 мм2.2 м/с4 %
    03:00Ясно и безоблачно+23°C94 %757 мм1.8 м/с5 %
    06:00Ясно и безоблачно+23°C97 %758 мм1.5 м/с4 %
    09:00Ясно и безоблачно+28°C72 %759 мм1.3 м/с5 %
    12:00Ясно и безоблачно+31°C48 %758 мм3.0 м/с5 %
    15:00Ясно и безоблачно+33°C39 %756 мм2.0 м/с4 %
    18:00Практически безоблачно+31°C52 %756 мм1.5 м/с4 %
    21:00Небольшая облачность+27°C66 %758 мм3.0 м/с4 %
  • 20июля
    Суббота
    +21°
    +33°
    Ясно и безоблачно
    ВремяПогодаТемператураВлажностьДавлениеВетер, м/сВероятность осадков
    00:00Небольшая облачность+25°C87 %758 мм1.8 м/с3 %
    03:00Облачно с прояснениями+24°C91 %757 мм1.9 м/с9 %
    06:00Ясно и безоблачно+24°C94 %758 мм1.6 м/с18 %
    09:00Ясно и безоблачно+29°C63 %759 мм3.3 м/с11 %
    12:00Ясно и безоблачно+31°C44 %758 мм4.4 м/с12 %
    15:00Ясно и безоблачно+32°C40 %756 мм4.0 м/с4 %
    18:00Практически безоблачно+30°C55 %756 мм0.7 м/с5 %
    21:00Небольшая облачность+27°C63 %758 мм2.2 м/с3 %
  • 21июля
    Воскресенье
    +22°
    +33°
    Ясно и безоблачно
    ВремяПогодаТемператураВлажностьДавлениеВетер, м/сВероятность осадков
    00:00Небольшая облачность+25°C68 %757 мм1.9 м/с3 %
    03:00Ясно и безоблачно+24°C69 %756 мм2.1 м/с9 %
    06:00Ясно и безоблачно+24°C63 %757 мм3.3 м/с19 %
    09:00Ясно и безоблачно+29°C48 %758 мм3.9 м/с11 %
    12:00Ясно и безоблачно+31°C39 %757 мм4.2 м/с6 %
    15:00Ясно и безоблачно+33°C32 %755 мм3.5 м/с5 %
    18:00Ясно и безоблачно+31°C49 %755 мм0.9 м/с5 %
    21:00Ясно и безоблачно+26°C63 %757 мм3.8 м/с5 %
Мы используем cookies
Соглашаюсь